sensor_id;sensor_type;location;lat;lon;timestamp;temperature;humidity
71942;DHT22;59997;53.300;-6.260;2023-02-19T00:01:13;9.03;80.37
71942;DHT22;59997;53.300;-6.260;2023-02-19T00:03:40;9.07;80.33
71942;DHT22;59997;53.300;-6.260;2023-02-19T00:06:08;9.06;80.49
71942;DHT22;59997;53.300;-6.260;2023-02-19T00:08:36;9.14;79.82
71942;DHT22;59997;53.300;-6.260;2023-02-19T00:11:07;9.10;80.02
71942;DHT22;59997;53.300;-6.260;2023-02-19T00:13:36;9.10;79.98
71942;DHT22;59997;53.300;-6.260;2023-02-19T00:16:13;9.08;80.14
71942;DHT22;59997;53.300;-6.260;2023-02-19T00:18:40;9.01;80.41
71942;DHT22;59997;53.300;-6.260;2023-02-19T00:21:06;8.97;80.55
71942;DHT22;59997;53.300;-6.260;2023-02-19T00:23:32;8.96;80.75
71942;DHT22;59997;53.300;-6.260;2023-02-19T00:26:08;8.94;80.80
71942;DHT22;59997;53.300;-6.260;2023-02-19T00:28:34;8.94;80.74
71942;DHT22;59997;53.300;-6.260;2023-02-19T00:31:07;8.91;80.97
71942;DHT22;59997;53.300;-6.260;2023-02-19T00:33:34;8.91;81.05
71942;DHT22;59997;53.300;-6.260;2023-02-19T00:36:03;8.89;81.03
71942;DHT22;59997;53.300;-6.260;2023-02-19T00:38:30;8.87;80.90
71942;DHT22;59997;53.300;-6.260;2023-02-19T00:40:59;8.81;81.02
71942;DHT22;59997;53.300;-6.260;2023-02-19T00:43:24;8.77;81.17
71942;DHT22;59997;53.300;-6.260;2023-02-19T00:45:50;8.83;81.04
71942;DHT22;59997;53.300;-6.260;2023-02-19T00:48:15;8.76;81.26
71942;DHT22;59997;53.300;-6.260;2023-02-19T00:50:41;8.77;81.34
71942;DHT22;59997;53.300;-6.260;2023-02-19T00:53:07;8.75;81.36
71942;DHT22;59997;53.300;-6.260;2023-02-19T00:55:32;8.77;81.23
71942;DHT22;59997;53.300;-6.260;2023-02-19T00:57:58;8.75;81.36
71942;DHT22;59997;53.300;-6.260;2023-02-19T01:00:23;8.77;81.26
71942;DHT22;59997;53.300;-6.260;2023-02-19T01:02:48;8.73;81.38
71942;DHT22;59997;53.300;-6.260;2023-02-19T01:05:14;8.75;81.43
71942;DHT22;59997;53.300;-6.260;2023-02-19T01:07:39;8.69;81.44
71942;DHT22;59997;53.300;-6.260;2023-02-19T01:10:05;8.76;81.08
71942;DHT22;59997;53.300;-6.260;2023-02-19T01:12:31;8.80;81.00
71942;DHT22;59997;53.300;-6.260;2023-02-19T01:14:57;8.83;80.91
71942;DHT22;59997;53.300;-6.260;2023-02-19T01:17:22;8.77;81.01
71942;DHT22;59997;53.300;-6.260;2023-02-19T01:19:48;8.80;80.98
71942;DHT22;59997;53.300;-6.260;2023-02-19T01:22:13;8.79;80.92
71942;DHT22;59997;53.300;-6.260;2023-02-19T01:24:39;8.75;80.87
71942;DHT22;59997;53.300;-6.260;2023-02-19T01:27:04;8.76;81.00
71942;DHT22;59997;53.300;-6.260;2023-02-19T01:29:30;8.72;81.06
71942;DHT22;59997;53.300;-6.260;2023-02-19T01:31:55;8.69;81.22
71942;DHT22;59997;53.300;-6.260;2023-02-19T01:34:20;8.62;81.46
71942;DHT22;59997;53.300;-6.260;2023-02-19T01:36:46;8.65;81.32
71942;DHT22;59997;53.300;-6.260;2023-02-19T01:39:12;8.59;81.42
71942;DHT22;59997;53.300;-6.260;2023-02-19T01:41:39;8.49;81.70
71942;DHT22;59997;53.300;-6.260;2023-02-19T01:46:37;8.46;81.67
71942;DHT22;59997;53.300;-6.260;2023-02-19T01:49:11;8.45;81.83
71942;DHT22;59997;53.300;-6.260;2023-02-19T01:51:41;8.46;81.90
71942;DHT22;59997;53.300;-6.260;2023-02-19T01:54:11;8.54;81.48
71942;DHT22;59997;53.300;-6.260;2023-02-19T01:56:40;8.58;81.54
71942;DHT22;59997;53.300;-6.260;2023-02-19T01:59:07;8.55;81.43
71942;DHT22;59997;53.300;-6.260;2023-02-19T02:01:36;8.55;81.39
71942;DHT22;59997;53.300;-6.260;2023-02-19T02:04:02;8.49;81.49
71942;DHT22;59997;53.300;-6.260;2023-02-19T02:06:36;8.38;81.77
71942;DHT22;59997;53.300;-6.260;2023-02-19T02:09:03;8.37;81.80
71942;DHT22;59997;53.300;-6.260;2023-02-19T02:11:49;8.40;81.62
71942;DHT22;59997;53.300;-6.260;2023-02-19T02:14:22;8.52;81.31
71942;DHT22;59997;53.300;-6.260;2023-02-19T02:22:34;8.37;81.43
71942;DHT22;59997;53.300;-6.260;2023-02-19T02:30:55;8.07;82.14
71942;DHT22;59997;53.300;-6.260;2023-02-19T02:33:42;8.13;81.86
71942;DHT22;59997;53.300;-6.260;2023-02-19T02:36:16;8.24;81.30
71942;DHT22;59997;53.300;-6.260;2023-02-19T02:38:44;8.17;81.43
71942;DHT22;59997;53.300;-6.260;2023-02-19T02:41:12;8.11;81.42
71942;DHT22;59997;53.300;-6.260;2023-02-19T02:43:38;7.99;81.86
71942;DHT22;59997;53.300;-6.260;2023-02-19T02:46:04;7.96;81.98
71942;DHT22;59997;53.300;-6.260;2023-02-19T02:53:39;7.96;81.87
71942;DHT22;59997;53.300;-6.260;2023-02-19T02:56:24;7.83;82.16
71942;DHT22;59997;53.300;-6.260;2023-02-19T02:58:51;7.87;82.16
71942;DHT22;59997;53.300;-6.260;2023-02-19T03:01:23;7.89;82.14
71942;DHT22;59997;53.300;-6.260;2023-02-19T03:04:18;7.90;82.16
71942;DHT22;59997;53.300;-6.260;2023-02-19T03:06:46;7.93;82.13
71942;DHT22;59997;53.300;-6.260;2023-02-19T03:09:36;7.94;82.25
71942;DHT22;59997;53.300;-6.260;2023-02-19T03:12:06;8.00;82.18
71942;DHT22;59997;53.300;-6.260;2023-02-19T03:14:54;8.00;82.27
71942;DHT22;59997;53.300;-6.260;2023-02-19T03:17:49;8.04;82.08
71942;DHT22;59997;53.300;-6.260;2023-02-19T03:20:38;8.02;82.26
71942;DHT22;59997;53.300;-6.260;2023-02-19T03:23:08;7.87;82.63
71942;DHT22;59997;53.300;-6.260;2023-02-19T03:25:36;7.82;82.93
71942;DHT22;59997;53.300;-6.260;2023-02-19T03:28:24;7.96;82.66
71942;DHT22;59997;53.300;-6.260;2023-02-19T03:31:14;7.85;82.69
71942;DHT22;59997;53.300;-6.260;2023-02-19T03:33:42;7.82;82.73
71942;DHT22;59997;53.300;-6.260;2023-02-19T03:36:11;7.81;82.93
71942;DHT22;59997;53.300;-6.260;2023-02-19T03:38:46;7.71;83.17
71942;DHT22;59997;53.300;-6.260;2023-02-19T03:41:24;7.78;83.19
71942;DHT22;59997;53.300;-6.260;2023-02-19T03:47:14;8.09;82.62
71942;DHT22;59997;53.300;-6.260;2023-02-19T03:49:44;8.09;82.61
71942;DHT22;59997;53.300;-6.260;2023-02-19T03:52:22;8.09;82.77
71942;DHT22;59997;53.300;-6.260;2023-02-19T03:54:56;8.06;82.93
71942;DHT22;59997;53.300;-6.260;2023-02-19T03:58:03;8.06;82.77
71942;DHT22;59997;53.300;-6.260;2023-02-19T04:03:31;8.07;82.77
71942;DHT22;59997;53.300;-6.260;2023-02-19T04:06:02;8.02;82.76
71942;DHT22;59997;53.300;-6.260;2023-02-19T04:08:29;8.03;82.96
71942;DHT22;59997;53.300;-6.260;2023-02-19T04:10:57;8.11;82.62
71942;DHT22;59997;53.300;-6.260;2023-02-19T04:13:35;8.19;82.40
71942;DHT22;59997;53.300;-6.260;2023-02-19T04:16:06;8.17;82.43
71942;DHT22;59997;53.300;-6.260;2023-02-19T04:18:36;8.19;82.35
71942;DHT22;59997;53.300;-6.260;2023-02-19T04:21:03;8.26;82.15
71942;DHT22;59997;53.300;-6.260;2023-02-19T04:23:34;8.28;82.22
71942;DHT22;59997;53.300;-6.260;2023-02-19T04:26:01;8.33;82.21
71942;DHT22;59997;53.300;-6.260;2023-02-19T04:28:28;8.31;82.20
71942;DHT22;59997;53.300;-6.260;2023-02-19T04:30:53;8.26;82.34
71942;DHT22;59997;53.300;-6.260;2023-02-19T04:33:19;8.26;82.23
71942;DHT22;59997;53.300;-6.260;2023-02-19T04:35:44;8.30;82.18
71942;DHT22;59997;53.300;-6.260;2023-02-19T04:38:10;8.45;81.84
71942;DHT22;59997;53.300;-6.260;2023-02-19T04:40:38;8.42;82.00
71942;DHT22;59997;53.300;-6.260;2023-02-19T04:43:03;8.45;81.86
71942;DHT22;59997;53.300;-6.260;2023-02-19T04:45:28;8.49;81.87
71942;DHT22;59997;53.300;-6.260;2023-02-19T04:47:56;8.49;82.00
71942;DHT22;59997;53.300;-6.260;2023-02-19T04:50:22;8.49;82.17
71942;DHT22;59997;53.300;-6.260;2023-02-19T04:52:47;8.48;82.51
71942;DHT22;59997;53.300;-6.260;2023-02-19T04:55:13;8.45;82.71
71942;DHT22;59997;53.300;-6.260;2023-02-19T04:57:38;8.42;82.94
71942;DHT22;59997;53.300;-6.260;2023-02-19T05:00:04;8.38;83.38
71942;DHT22;59997;53.300;-6.260;2023-02-19T05:02:30;8.37;83.41
71942;DHT22;59997;53.300;-6.260;2023-02-19T05:04:55;8.44;83.50
71942;DHT22;59997;53.300;-6.260;2023-02-19T05:07:20;8.38;83.65
71942;DHT22;59997;53.300;-6.260;2023-02-19T05:09:46;8.38;83.86
71942;DHT22;59997;53.300;-6.260;2023-02-19T05:12:11;8.35;84.05
71942;DHT22;59997;53.300;-6.260;2023-02-19T05:14:37;8.33;84.10
71942;DHT22;59997;53.300;-6.260;2023-02-19T05:17:02;8.31;84.16
71942;DHT22;59997;53.300;-6.260;2023-02-19T05:19:28;8.27;84.21
71942;DHT22;59997;53.300;-6.260;2023-02-19T05:21:53;8.31;84.23
71942;DHT22;59997;53.300;-6.260;2023-02-19T05:24:19;8.28;84.21
71942;DHT22;59997;53.300;-6.260;2023-02-19T05:26:44;8.26;84.30
71942;DHT22;59997;53.300;-6.260;2023-02-19T05:29:10;8.27;84.15
71942;DHT22;59997;53.300;-6.260;2023-02-19T05:31:35;8.26;83.97
71942;DHT22;59997;53.300;-6.260;2023-02-19T05:34:00;8.26;83.80
71942;DHT22;59997;53.300;-6.260;2023-02-19T05:36:26;8.27;83.64
71942;DHT22;59997;53.300;-6.260;2023-02-19T05:38:53;8.28;83.42
71942;DHT22;59997;53.300;-6.260;2023-02-19T05:41:29;8.24;83.43
71942;DHT22;59997;53.300;-6.260;2023-02-19T05:43:55;8.19;83.54
71942;DHT22;59997;53.300;-6.260;2023-02-19T05:46:23;8.17;83.42
71942;DHT22;59997;53.300;-6.260;2023-02-19T05:48:50;8.13;83.57
71942;DHT22;59997;53.300;-6.260;2023-02-19T05:51:18;8.04;83.78
71942;DHT22;59997;53.300;-6.260;2023-02-19T05:53:45;8.16;83.59
71942;DHT22;59997;53.300;-6.260;2023-02-19T05:56:33;8.10;83.64
71942;DHT22;59997;53.300;-6.260;2023-02-19T05:59:01;8.13;83.56
71942;DHT22;59997;53.300;-6.260;2023-02-19T06:01:28;8.10;83.61
71942;DHT22;59997;53.300;-6.260;2023-02-19T06:03:55;8.10;83.79
71942;DHT22;59997;53.300;-6.260;2023-02-19T06:06:21;7.97;83.89
71942;DHT22;59997;53.300;-6.260;2023-02-19T06:08:48;7.83;84.24
71942;DHT22;59997;53.300;-6.260;2023-02-19T06:11:15;7.82;84.39
71942;DHT22;59997;53.300;-6.260;2023-02-19T06:13:40;7.76;84.50
71942;DHT22;59997;53.300;-6.260;2023-02-19T06:16:06;7.55;84.76
71942;DHT22;59997;53.300;-6.260;2023-02-19T06:18:33;7.57;84.96
71942;DHT22;59997;53.300;-6.260;2023-02-19T06:21:07;7.64;84.96
71942;DHT22;59997;53.300;-6.260;2023-02-19T06:23:32;7.69;84.96
71942;DHT22;59997;53.300;-6.260;2023-02-19T06:26:22;7.72;84.83
71942;DHT22;59997;53.300;-6.260;2023-02-19T06:28:49;7.76;84.85
71942;DHT22;59997;53.300;-6.260;2023-02-19T06:31:16;7.67;85.06
71942;DHT22;59997;53.300;-6.260;2023-02-19T06:33:43;7.65;85.23
71942;DHT22;59997;53.300;-6.260;2023-02-19T06:36:11;7.61;85.35
71942;DHT22;59997;53.300;-6.260;2023-02-19T06:38:37;7.62;85.48
71942;DHT22;59997;53.300;-6.260;2023-02-19T06:41:04;7.61;85.55
71942;DHT22;59997;53.300;-6.260;2023-02-19T06:43:31;7.58;85.71
71942;DHT22;59997;53.300;-6.260;2023-02-19T06:45:58;7.52;85.77
71942;DHT22;59997;53.300;-6.260;2023-02-19T06:48:28;7.51;86.08
71942;DHT22;59997;53.300;-6.260;2023-02-19T06:50:54;7.61;86.19
71942;DHT22;59997;53.300;-6.260;2023-02-19T06:53:19;7.61;86.20
71942;DHT22;59997;53.300;-6.260;2023-02-19T06:55:57;7.61;86.27
71942;DHT22;59997;53.300;-6.260;2023-02-19T06:58:24;7.61;86.31
71942;DHT22;59997;53.300;-6.260;2023-02-19T07:00:50;7.61;86.23
71942;DHT22;59997;53.300;-6.260;2023-02-19T07:03:15;7.59;86.25
71942;DHT22;59997;53.300;-6.260;2023-02-19T07:05:41;7.64;86.00
71942;DHT22;59997;53.300;-6.260;2023-02-19T07:08:06;7.65;85.79
71942;DHT22;59997;53.300;-6.260;2023-02-19T07:10:31;7.67;85.56
71942;DHT22;59997;53.300;-6.260;2023-02-19T07:12:57;7.68;85.43
71942;DHT22;59997;53.300;-6.260;2023-02-19T07:15:22;7.76;85.40
71942;DHT22;59997;53.300;-6.260;2023-02-19T07:17:48;7.72;85.24
71942;DHT22;59997;53.300;-6.260;2023-02-19T07:20:13;7.83;85.02
71942;DHT22;59997;53.300;-6.260;2023-02-19T07:22:39;7.90;84.89
71942;DHT22;59997;53.300;-6.260;2023-02-19T07:25:04;7.86;85.02
71942;DHT22;59997;53.300;-6.260;2023-02-19T07:27:30;7.89;84.93
71942;DHT22;59997;53.300;-6.260;2023-02-19T07:29:55;7.89;84.97
71942;DHT22;59997;53.300;-6.260;2023-02-19T07:32:21;7.87;84.82
71942;DHT22;59997;53.300;-6.260;2023-02-19T07:34:46;7.92;84.73
71942;DHT22;59997;53.300;-6.260;2023-02-19T07:37:12;7.94;84.63
71942;DHT22;59997;53.300;-6.260;2023-02-19T07:39:37;7.87;84.77
71942;DHT22;59997;53.300;-6.260;2023-02-19T07:42:03;7.93;84.74
71942;DHT22;59997;53.300;-6.260;2023-02-19T07:44:28;7.89;84.66
71942;DHT22;59997;53.300;-6.260;2023-02-19T07:46:54;7.89;84.88
71942;DHT22;59997;53.300;-6.260;2023-02-19T07:49:19;7.85;84.94
71942;DHT22;59997;53.300;-6.260;2023-02-19T07:51:44;7.83;85.17
71942;DHT22;59997;53.300;-6.260;2023-02-19T07:54:10;7.82;85.18
71942;DHT22;59997;53.300;-6.260;2023-02-19T07:56:35;7.81;85.30
71942;DHT22;59997;53.300;-6.260;2023-02-19T07:59:01;7.82;85.35
71942;DHT22;59997;53.300;-6.260;2023-02-19T08:01:26;7.79;85.49
71942;DHT22;59997;53.300;-6.260;2023-02-19T08:04:13;7.76;85.56
71942;DHT22;59997;53.300;-6.260;2023-02-19T08:06:39;7.81;85.52
71942;DHT22;59997;53.300;-6.260;2023-02-19T08:09:04;7.79;85.50
71942;DHT22;59997;53.300;-6.260;2023-02-19T08:11:30;7.79;85.52
71942;DHT22;59997;53.300;-6.260;2023-02-19T08:14:14;7.83;85.48
71942;DHT22;59997;53.300;-6.260;2023-02-19T08:16:47;7.82;85.50
71942;DHT22;59997;53.300;-6.260;2023-02-19T08:19:13;7.85;85.56
71942;DHT22;59997;53.300;-6.260;2023-02-19T08:21:38;7.89;85.40
71942;DHT22;59997;53.300;-6.260;2023-02-19T08:24:04;7.87;85.44
71942;DHT22;59997;53.300;-6.260;2023-02-19T08:26:31;7.86;85.49
71942;DHT22;59997;53.300;-6.260;2023-02-19T08:28:56;7.93;85.43
71942;DHT22;59997;53.300;-6.260;2023-02-19T08:31:23;7.94;85.36
71942;DHT22;59997;53.300;-6.260;2023-02-19T08:33:48;7.99;85.34
71942;DHT22;59997;53.300;-6.260;2023-02-19T08:36:14;7.99;85.38
71942;DHT22;59997;53.300;-6.260;2023-02-19T08:38:39;7.99;85.43
71942;DHT22;59997;53.300;-6.260;2023-02-19T08:41:14;8.02;85.44
71942;DHT22;59997;53.300;-6.260;2023-02-19T08:43:40;8.06;85.46
71942;DHT22;59997;53.300;-6.260;2023-02-19T08:46:07;7.99;85.57
71942;DHT22;59997;53.300;-6.260;2023-02-19T08:48:34;8.02;85.59
71942;DHT22;59997;53.300;-6.260;2023-02-19T08:51:03;8.02;85.64
71942;DHT22;59997;53.300;-6.260;2023-02-19T08:53:33;8.03;85.55
71942;DHT22;59997;53.300;-6.260;2023-02-19T08:56:10;8.04;85.58
71942;DHT22;59997;53.300;-6.260;2023-02-19T08:58:37;8.07;85.54
71942;DHT22;59997;53.300;-6.260;2023-02-19T09:01:10;8.06;85.45
71942;DHT22;59997;53.300;-6.260;2023-02-19T09:03:36;8.06;85.52
71942;DHT22;59997;53.300;-6.260;2023-02-19T09:06:01;8.11;85.34
71942;DHT22;59997;53.300;-6.260;2023-02-19T09:08:27;8.13;85.24
71942;DHT22;59997;53.300;-6.260;2023-02-19T09:11:00;8.17;85.07
71942;DHT22;59997;53.300;-6.260;2023-02-19T09:13:26;8.21;85.08
71942;DHT22;59997;53.300;-6.260;2023-02-19T09:15:51;8.24;84.97
71942;DHT22;59997;53.300;-6.260;2023-02-19T09:18:17;8.27;84.85
71942;DHT22;59997;53.300;-6.260;2023-02-19T09:20:42;8.27;84.90
71942;DHT22;59997;53.300;-6.260;2023-02-19T09:23:08;8.34;84.79
71942;DHT22;59997;53.300;-6.260;2023-02-19T09:25:33;8.38;84.71
71942;DHT22;59997;53.300;-6.260;2023-02-19T09:27:59;8.44;84.64
71942;DHT22;59997;53.300;-6.260;2023-02-19T09:30:24;8.52;84.47
71942;DHT22;59997;53.300;-6.260;2023-02-19T09:32:49;8.65;84.21
71942;DHT22;59997;53.300;-6.260;2023-02-19T09:35:15;8.79;83.95
71942;DHT22;59997;53.300;-6.260;2023-02-19T09:37:40;9.01;83.49
71942;DHT22;59997;53.300;-6.260;2023-02-19T09:40:06;9.34;82.83
71942;DHT22;59997;53.300;-6.260;2023-02-19T09:42:32;9.67;82.31
71942;DHT22;59997;53.300;-6.260;2023-02-19T09:44:59;9.82;81.51
71942;DHT22;59997;53.300;-6.260;2023-02-19T09:47:28;10.12;80.78
71942;DHT22;59997;53.300;-6.260;2023-02-19T09:50:15;10.11;80.81
71942;DHT22;59997;53.300;-6.260;2023-02-19T09:52:53;9.90;81.29
71942;DHT22;59997;53.300;-6.260;2023-02-19T09:55:30;9.62;81.77
71942;DHT22;59997;53.300;-6.260;2023-02-19T09:57:59;9.56;82.19
71942;DHT22;59997;53.300;-6.260;2023-02-19T10:00:28;9.48;82.35
71942;DHT22;59997;53.300;-6.260;2023-02-19T10:03:08;9.48;82.19
71942;DHT22;59997;53.300;-6.260;2023-02-19T10:05:35;9.55;82.16
71942;DHT22;59997;53.300;-6.260;2023-02-19T10:08:05;9.56;82.18
71942;DHT22;59997;53.300;-6.260;2023-02-19T10:10:34;9.60;81.99
71942;DHT22;59997;53.300;-6.260;2023-02-19T10:13:29;9.65;82.28
71942;DHT22;59997;53.300;-6.260;2023-02-19T10:16:00;9.70;82.24
71942;DHT22;59997;53.300;-6.260;2023-02-19T10:18:28;9.60;81.90
71942;DHT22;59997;53.300;-6.260;2023-02-19T10:20:56;9.56;81.97
71942;DHT22;59997;53.300;-6.260;2023-02-19T10:23:23;9.55;81.92
71942;DHT22;59997;53.300;-6.260;2023-02-19T10:25:53;9.67;81.88
71942;DHT22;59997;53.300;-6.260;2023-02-19T10:28:24;9.76;81.67
71942;DHT22;59997;53.300;-6.260;2023-02-19T10:30:54;9.79;81.34
71942;DHT22;59997;53.300;-6.260;2023-02-19T10:33:20;9.86;81.29
71942;DHT22;59997;53.300;-6.260;2023-02-19T10:35:55;9.91;81.59
71942;DHT22;59997;53.300;-6.260;2023-02-19T10:38:25;9.98;81.26
71942;DHT22;59997;53.300;-6.260;2023-02-19T10:41:13;9.95;80.88
71942;DHT22;59997;53.300;-6.260;2023-02-19T10:43:49;9.93;80.92
71942;DHT22;59997;53.300;-6.260;2023-02-19T10:46:17;9.97;80.43
71942;DHT22;59997;53.300;-6.260;2023-02-19T10:48:53;10.00;80.83
71942;DHT22;59997;53.300;-6.260;2023-02-19T10:51:19;10.12;80.75
71942;DHT22;59997;53.300;-6.260;2023-02-19T10:53:51;10.09;80.37
71942;DHT22;59997;53.300;-6.260;2023-02-19T10:56:28;10.14;80.55
71942;DHT22;59997;53.300;-6.260;2023-02-19T11:01:56;10.12;80.45
71942;DHT22;59997;53.300;-6.260;2023-02-19T11:04:23;10.28;80.32
71942;DHT22;59997;53.300;-6.260;2023-02-19T11:06:50;10.35;80.06
71942;DHT22;59997;53.300;-6.260;2023-02-19T11:09:29;10.48;80.02
71942;DHT22;59997;53.300;-6.260;2023-02-19T11:11:57;10.43;79.39
71942;DHT22;59997;53.300;-6.260;2023-02-19T11:14:24;10.39;79.47
71942;DHT22;59997;53.300;-6.260;2023-02-19T11:16:52;10.36;79.39
71942;DHT22;59997;53.300;-6.260;2023-02-19T11:19:37;10.56;79.02
71942;DHT22;59997;53.300;-6.260;2023-02-19T11:22:32;10.70;78.19
71942;DHT22;59997;53.300;-6.260;2023-02-19T11:25:20;10.64;78.40
71942;DHT22;59997;53.300;-6.260;2023-02-19T11:33:21;10.56;78.37
71942;DHT22;59997;53.300;-6.260;2023-02-19T11:35:50;10.76;78.16
71942;DHT22;59997;53.300;-6.260;2023-02-19T11:38:17;11.01;77.27
71942;DHT22;59997;53.300;-6.260;2023-02-19T11:46:04;11.26;75.38
71942;DHT22;59997;53.300;-6.260;2023-02-19T11:48:48;11.75;74.80
71942;DHT22;59997;53.300;-6.260;2023-02-19T11:54:20;11.87;74.05
71942;DHT22;59997;53.300;-6.260;2023-02-19T12:18:47;13.47;69.33
71942;DHT22;59997;53.300;-6.260;2023-02-19T12:24:33;13.33;69.05
71942;DHT22;59997;53.300;-6.260;2023-02-19T12:27:24;13.98;67.62
71942;DHT22;59997;53.300;-6.260;2023-02-19T12:32:40;13.51;69.10
71942;DHT22;59997;53.300;-6.260;2023-02-19T12:40:37;13.68;67.81
71942;DHT22;59997;53.300;-6.260;2023-02-19T12:43:23;13.83;68.81
71942;DHT22;59997;53.300;-6.260;2023-02-19T12:46:15;14.20;68.76
71942;DHT22;59997;53.300;-6.260;2023-02-19T12:48:51;13.65;66.92
71942;DHT22;59997;53.300;-6.260;2023-02-19T12:51:32;13.51;68.65
71942;DHT22;59997;53.300;-6.260;2023-02-19T12:54:11;13.23;69.13
71942;DHT22;59997;53.300;-6.260;2023-02-19T12:59:31;13.20;68.93
71942;DHT22;59997;53.300;-6.260;2023-02-19T13:07:39;12.74;70.70
71942;DHT22;59997;53.300;-6.260;2023-02-19T13:12:38;12.91;70.25
71942;DHT22;59997;53.300;-6.260;2023-02-19T13:17:44;13.57;68.62
71942;DHT22;59997;53.300;-6.260;2023-02-19T13:36:58;12.29;71.59
71942;DHT22;59997;53.300;-6.260;2023-02-19T13:39:24;11.98;72.36
71942;DHT22;59997;53.300;-6.260;2023-02-19T13:41:52;12.02;72.85
71942;DHT22;59997;53.300;-6.260;2023-02-19T13:44:20;12.47;71.96
71942;DHT22;59997;53.300;-6.260;2023-02-19T13:46:49;12.44;71.60
71942;DHT22;59997;53.300;-6.260;2023-02-19T13:51:55;12.92;71.21
71942;DHT22;59997;53.300;-6.260;2023-02-19T13:54:32;12.78;71.30
71942;DHT22;59997;53.300;-6.260;2023-02-19T13:57:25;12.61;71.43
71942;DHT22;59997;53.300;-6.260;2023-02-19T13:59:53;12.34;72.08
71942;DHT22;59997;53.300;-6.260;2023-02-19T14:05:04;12.39;71.38
71942;DHT22;59997;53.300;-6.260;2023-02-19T14:07:51;12.21;71.85
71942;DHT22;59997;53.300;-6.260;2023-02-19T14:10:50;12.16;72.23
71942;DHT22;59997;53.300;-6.260;2023-02-19T14:18:54;12.25;71.83
71942;DHT22;59997;53.300;-6.260;2023-02-19T14:21:24;12.15;72.35
71942;DHT22;59997;53.300;-6.260;2023-02-19T14:23:54;12.19;72.54
71942;DHT22;59997;53.300;-6.260;2023-02-19T14:26:23;12.16;72.29
71942;DHT22;59997;53.300;-6.260;2023-02-19T14:28:50;12.13;72.56
71942;DHT22;59997;53.300;-6.260;2023-02-19T14:31:24;12.23;72.38
71942;DHT22;59997;53.300;-6.260;2023-02-19T14:33:53;12.15;71.82
71942;DHT22;59997;53.300;-6.260;2023-02-19T14:38:50;12.15;72.04
71942;DHT22;59997;53.300;-6.260;2023-02-19T14:41:17;12.09;72.84
71942;DHT22;59997;53.300;-6.260;2023-02-19T14:43:45;12.13;72.15
71942;DHT22;59997;53.300;-6.260;2023-02-19T14:46:28;12.11;71.86
71942;DHT22;59997;53.300;-6.260;2023-02-19T14:48:59;11.99;71.99
71942;DHT22;59997;53.300;-6.260;2023-02-19T14:51:55;12.02;72.52
71942;DHT22;59997;53.300;-6.260;2023-02-19T14:54:47;12.06;72.85
71942;DHT22;59997;53.300;-6.260;2023-02-19T14:57:19;12.13;72.50
71942;DHT22;59997;53.300;-6.260;2023-02-19T14:59:59;12.22;71.68
71942;DHT22;59997;53.300;-6.260;2023-02-19T15:02:27;12.19;72.63
71942;DHT22;59997;53.300;-6.260;2023-02-19T15:04:54;12.22;73.08
71942;DHT22;59997;53.300;-6.260;2023-02-19T15:07:31;12.21;73.05
71942;DHT22;59997;53.300;-6.260;2023-02-19T15:10:00;12.28;73.13
71942;DHT22;59997;53.300;-6.260;2023-02-19T15:12:33;12.32;72.96
71942;DHT22;59997;53.300;-6.260;2023-02-19T15:15:01;12.33;72.17
71942;DHT22;59997;53.300;-6.260;2023-02-19T15:17:30;12.46;72.42
71942;DHT22;59997;53.300;-6.260;2023-02-19T15:19:59;12.43;71.58
71942;DHT22;59997;53.300;-6.260;2023-02-19T15:22:28;12.43;71.98
71942;DHT22;59997;53.300;-6.260;2023-02-19T15:25:00;12.34;71.91
71942;DHT22;59997;53.300;-6.260;2023-02-19T15:27:25;12.32;71.79
71942;DHT22;59997;53.300;-6.260;2023-02-19T15:29:52;12.34;72.45
71942;DHT22;59997;53.300;-6.260;2023-02-19T15:32:23;12.34;72.40
71942;DHT22;59997;53.300;-6.260;2023-02-19T15:34:59;12.40;72.30
71942;DHT22;59997;53.300;-6.260;2023-02-19T15:37:27;12.43;72.59
71942;DHT22;59997;53.300;-6.260;2023-02-19T15:39:54;12.47;72.72
71942;DHT22;59997;53.300;-6.260;2023-02-19T15:42:26;12.49;72.68
71942;DHT22;59997;53.300;-6.260;2023-02-19T15:50:28;12.46;73.06
71942;DHT22;59997;53.300;-6.260;2023-02-19T15:58:18;12.28;73.79
71942;DHT22;59997;53.300;-6.260;2023-02-19T16:00:48;12.29;73.90
71942;DHT22;59997;53.300;-6.260;2023-02-19T16:03:25;12.22;74.01
71942;DHT22;59997;53.300;-6.260;2023-02-19T16:06:24;12.29;74.00
71942;DHT22;59997;53.300;-6.260;2023-02-19T16:11:37;12.44;74.05
71942;DHT22;59997;53.300;-6.260;2023-02-19T16:14:34;12.40;74.06
71942;DHT22;59997;53.300;-6.260;2023-02-19T16:19:58;12.12;75.05
71942;DHT22;59997;53.300;-6.260;2023-02-19T16:22:27;12.06;75.26
71942;DHT22;59997;53.300;-6.260;2023-02-19T16:24:58;11.92;75.72
71942;DHT22;59997;53.300;-6.260;2023-02-19T16:27:43;11.95;75.70
71942;DHT22;59997;53.300;-6.260;2023-02-19T16:30:26;11.92;75.91
71942;DHT22;59997;53.300;-6.260;2023-02-19T16:35:57;12.05;75.96
71942;DHT22;59997;53.300;-6.260;2023-02-19T16:38:22;12.18;75.83
71942;DHT22;59997;53.300;-6.260;2023-02-19T16:45:44;11.85;76.64
71942;DHT22;59997;53.300;-6.260;2023-02-19T16:48:11;11.77;76.99
71942;DHT22;59997;53.300;-6.260;2023-02-19T16:50:38;11.71;77.22
71942;DHT22;59997;53.300;-6.260;2023-02-19T16:53:06;11.56;77.73
71942;DHT22;59997;53.300;-6.260;2023-02-19T16:55:31;11.53;78.07
71942;DHT22;59997;53.300;-6.260;2023-02-19T16:57:59;11.46;78.25
71942;DHT22;59997;53.300;-6.260;2023-02-19T17:00:27;11.59;77.97
71942;DHT22;59997;53.300;-6.260;2023-02-19T17:02:59;11.53;78.23
71942;DHT22;59997;53.300;-6.260;2023-02-19T17:05:27;11.52;78.37
71942;DHT22;59997;53.300;-6.260;2023-02-19T17:07:53;11.53;78.26
71942;DHT22;59997;53.300;-6.260;2023-02-19T17:10:20;11.44;78.67
71942;DHT22;59997;53.300;-6.260;2023-02-19T17:12:53;11.47;78.63
71942;DHT22;59997;53.300;-6.260;2023-02-19T17:15:19;11.53;78.59
71942;DHT22;59997;53.300;-6.260;2023-02-19T17:17:45;11.62;78.43
71942;DHT22;59997;53.300;-6.260;2023-02-19T17:22:42;11.57;78.73
71942;DHT22;59997;53.300;-6.260;2023-02-19T17:25:07;11.57;78.76
71942;DHT22;59997;53.300;-6.260;2023-02-19T17:27:33;11.56;79.02
71942;DHT22;59997;53.300;-6.260;2023-02-19T17:29:59;11.57;79.11
71942;DHT22;59997;53.300;-6.260;2023-02-19T17:32:25;11.63;78.99
71942;DHT22;59997;53.300;-6.260;2023-02-19T17:34:50;11.67;78.92
71942;DHT22;59997;53.300;-6.260;2023-02-19T17:37:16;11.62;79.13
71942;DHT22;59997;53.300;-6.260;2023-02-19T17:39:41;11.67;79.31
71942;DHT22;59997;53.300;-6.260;2023-02-19T17:42:07;11.71;79.17
71942;DHT22;59997;53.300;-6.260;2023-02-19T17:44:32;11.80;79.17
71942;DHT22;59997;53.300;-6.260;2023-02-19T17:46:58;11.94;78.77
71942;DHT22;59997;53.300;-6.260;2023-02-19T17:49:23;11.99;78.62
71942;DHT22;59997;53.300;-6.260;2023-02-19T17:51:49;12.04;78.61
71942;DHT22;59997;53.300;-6.260;2023-02-19T17:54:14;12.08;78.61
71942;DHT22;59997;53.300;-6.260;2023-02-19T17:56:40;12.05;78.86
71942;DHT22;59997;53.300;-6.260;2023-02-19T17:59:08;12.13;78.53
71942;DHT22;59997;53.300;-6.260;2023-02-19T18:01:34;12.11;78.63
71942;DHT22;59997;53.300;-6.260;2023-02-19T18:04:00;12.11;78.69
71942;DHT22;59997;53.300;-6.260;2023-02-19T18:06:25;12.15;78.63
71942;DHT22;59997;53.300;-6.260;2023-02-19T18:08:51;12.16;78.74